Time;durP1;ratioP1;P1;durP2;ratioP2;P2;SDS_P1;SDS_P2;PMS_P1;PMS_P2;Temp;Humidity;BMP_temperature;BMP_pressure;BME280_temperature;BME280_humidity;BME280_pressure;Samples;Min_cycle;Max_cycle;Signal;HPM_P1;HPM_P2
2021/03/23 00:01:39;;;;;;;1.67;1.53;;;22.90;26.30;;;;;;5071956;28;20568;-53
2021/03/23 00:04:05;;;;;;;1.63;1.53;;;22.90;26.30;;;;;;5072027;28;20200;-51
2021/03/23 00:06:31;;;;;;;1.73;1.63;;;22.90;26.30;;;;;;5063993;28;20301;-49
2021/03/23 00:08:57;;;;;;;1.80;1.40;;;22.90;26.30;;;;;;5072034;28;20228;-53
2021/03/23 00:11:23;;;;;;;3.03;1.40;;;22.90;26.30;;;;;;5071215;28;20200;-50
2021/03/23 00:13:49;;;;;;;1.40;1.30;;;22.90;26.30;;;;;;5071472;28;20211;-50
2021/03/23 00:16:15;;;;;;;2.80;1.50;;;22.90;26.30;;;;;;5071059;28;20649;-48
2021/03/23 00:18:41;;;;;;;1.77;1.50;;;22.90;26.30;;;;;;5071965;28;20228;-52
2021/03/23 00:21:07;;;;;;;2.67;1.80;;;22.90;26.30;;;;;;5071586;28;20197;-49
2021/03/23 00:23:33;;;;;;;2.47;1.50;;;22.90;26.30;;;;;;5064770;28;20193;-49
2021/03/23 00:25:59;;;;;;;1.70;1.30;;;22.90;26.30;;;;;;5070524;28;20240;-48
2021/03/23 00:28:25;;;;;;;1.50;1.30;;;22.90;26.40;;;;;;5071384;28;20231;-50
2021/03/23 00:30:51;;;;;;;1.87;1.40;;;22.90;26.40;;;;;;5072712;28;20211;-56
2021/03/23 00:33:17;;;;;;;1.40;1.30;;;22.90;26.50;;;;;;5070420;28;20204;-46
2021/03/23 00:35:43;;;;;;;1.53;1.30;;;22.90;26.50;;;;;;5072570;28;20198;-49
2021/03/23 00:38:09;;;;;;;2.27;1.40;;;22.90;26.50;;;;;;5070557;28;20235;-52
2021/03/23 00:40:35;;;;;;;1.40;1.23;;;22.90;26.50;;;;;;5072380;28;20974;-52
2021/03/23 00:43:01;;;;;;;2.07;1.63;;;22.90;26.50;;;;;;5069494;28;20200;-53
2021/03/23 00:45:27;;;;;;;1.90;1.50;;;22.90;26.50;;;;;;5071673;28;20247;-53
2021/03/23 00:47:53;;;;;;;1.87;1.77;;;22.90;26.50;;;;;;5070850;28;20227;-54
2021/03/23 00:50:19;;;;;;;1.63;1.27;;;22.90;26.50;;;;;;5072468;28;20202;-56
2021/03/23 00:52:45;;;;;;;2.37;1.63;;;22.90;26.50;;;;;;5070648;28;20208;-47
2021/03/23 00:55:11;;;;;;;1.93;1.50;;;22.90;26.50;;;;;;5071223;28;20254;-51
2021/03/23 00:57:36;;;;;;;1.83;1.30;;;22.90;26.50;;;;;;5069954;28;20596;-57
2021/03/23 01:00:02;;;;;;;1.73;1.60;;;22.90;26.50;;;;;;5071633;28;20250;-55
2021/03/23 01:02:28;;;;;;;1.30;1.20;;;22.90;26.50;;;;;;5066123;28;20196;-51
2021/03/23 01:04:54;;;;;;;1.30;1.20;;;22.90;26.50;;;;;;5072097;28;20228;-50
2021/03/23 01:07:20;;;;;;;1.57;1.47;;;22.90;26.50;;;;;;5068628;28;20205;-52
2021/03/23 01:09:46;;;;;;;1.40;1.30;;;22.90;26.50;;;;;;5069294;28;20285;-49
2021/03/23 01:12:12;;;;;;;1.53;1.30;;;22.90;26.50;;;;;;5067646;28;20205;-53
2021/03/23 01:14:39;;;;;;;1.53;1.30;;;22.90;26.50;;;;;;5069717;28;20569;-49
2021/03/23 01:17:05;;;;;;;2.33;1.70;;;22.90;26.50;;;;;;5066720;28;20660;-51
2021/03/23 01:19:31;;;;;;;1.60;1.43;;;22.90;26.50;;;;;;5065663;28;20742;-51
2021/03/23 01:24:26;;;;;;;2.20;2.00;;;22.90;26.60;;;;;;5045311;28;20270;-60
2021/03/23 01:26:52;;;;;;;1.60;1.50;;;22.90;26.60;;;;;;5047857;28;20251;-60
2021/03/23 01:29:18;;;;;;;1.50;1.33;;;22.90;26.60;;;;;;5048718;28;20225;-60
2021/03/23 01:31:44;;;;;;;1.37;1.27;;;22.90;26.70;;;;;;5051005;28;20224;-60
2021/03/23 01:34:10;;;;;;;1.50;1.40;;;22.90;26.70;;;;;;5049316;28;20196;-60
2021/03/23 01:36:36;;;;;;;1.40;1.30;;;22.90;26.70;;;;;;5048728;28;20216;-60
2021/03/23 01:39:02;;;;;;;1.40;1.30;;;22.90;26.70;;;;;;5050205;28;20228;-60
2021/03/23 01:41:28;;;;;;;1.13;1.10;;;22.80;26.70;;;;;;5049238;28;20559;-60
2021/03/23 01:43:54;;;;;;;1.43;1.17;;;22.90;26.70;;;;;;5051126;28;20267;-60
2021/03/23 01:46:20;;;;;;;1.73;1.30;;;22.90;26.70;;;;;;5049326;28;20377;-61
2021/03/23 01:48:46;;;;;;;1.30;1.20;;;22.90;26.70;;;;;;5048156;28;20239;-60
2021/03/23 01:51:11;;;;;;;1.50;1.40;;;22.80;26.70;;;;;;5049934;28;20201;-60
2021/03/23 01:53:37;;;;;;;1.43;1.20;;;22.90;26.70;;;;;;5049638;28;20203;-60
2021/03/23 01:56:03;;;;;;;1.83;1.30;;;22.90;26.70;;;;;;5049539;28;20240;-60
2021/03/23 01:58:29;;;;;;;1.90;1.40;;;22.90;26.70;;;;;;5048841;28;20223;-60
2021/03/23 02:00:55;;;;;;;1.67;1.50;;;22.90;26.70;;;;;;5049157;28;20212;-62
2021/03/23 02:03:21;;;;;;;2.07;1.67;;;22.90;26.70;;;;;;5050140;28;20571;-60
2021/03/23 02:05:47;;;;;;;1.43;1.33;;;22.90;26.60;;;;;;5049124;28;20226;-60
2021/03/23 02:08:13;;;;;;;1.93;1.33;;;22.90;26.70;;;;;;5049415;28;20225;-60
2021/03/23 02:10:39;;;;;;;1.70;1.30;;;22.90;26.60;;;;;;5049179;28;20205;-60
2021/03/23 02:13:05;;;;;;;1.83;1.50;;;22.90;26.70;;;;;;5050032;28;20218;-61
2021/03/23 02:15:31;;;;;;;1.40;1.27;;;22.90;26.70;;;;;;5048536;28;20638;-60
2021/03/23 02:17:57;;;;;;;1.57;1.20;;;22.90;26.70;;;;;;5044326;28;20233;-60
2021/03/23 02:20:23;;;;;;;1.50;1.30;;;22.90;26.70;;;;;;5050118;28;20243;-58
2021/03/23 02:22:49;;;;;;;1.47;1.37;;;22.90;26.70;;;;;;5048249;28;20216;-60
2021/03/23 02:25:15;;;;;;;1.47;1.20;;;22.90;26.70;;;;;;5050146;28;20370;-60
2021/03/23 02:27:41;;;;;;;2.20;1.40;;;22.90;26.80;;;;;;5048777;28;20651;-60
2021/03/23 02:30:07;;;;;;;1.77;1.40;;;22.90;26.80;;;;;;5048829;28;20205;-60
2021/03/23 02:32:33;;;;;;;1.80;1.50;;;22.90;26.80;;;;;;5048133;28;20219;-60
2021/03/23 02:34:59;;;;;;;1.43;1.30;;;22.90;26.80;;;;;;5048520;28;20209;-60
2021/03/23 02:37:25;;;;;;;2.13;1.40;;;22.90;26.80;;;;;;5049123;28;20241;-60
2021/03/23 02:39:51;;;;;;;1.53;1.37;;;22.80;26.80;;;;;;5048841;28;20855;-60
2021/03/23 02:42:17;;;;;;;1.37;1.10;;;22.90;26.80;;;;;;5049357;28;20243;-60
2021/03/23 02:44:43;;;;;;;1.70;1.43;;;22.90;26.90;;;;;;5049157;28;20205;-59
2021/03/23 02:47:09;;;;;;;1.53;1.43;;;22.90;26.80;;;;;;5047278;28;20223;-60
2021/03/23 02:49:35;;;;;;;2.83;1.30;;;22.90;26.80;;;;;;5048042;28;20212;-60
2021/03/23 02:52:01;;;;;;;1.10;1.10;;;22.90;26.80;;;;;;5048587;28;20539;-60
2021/03/23 02:54:27;;;;;;;1.63;1.30;;;22.90;26.80;;;;;;5049345;28;20209;-60
2021/03/23 02:56:53;;;;;;;1.40;1.30;;;22.90;26.80;;;;;;5048641;28;20273;-60
2021/03/23 02:59:19;;;;;;;1.37;1.27;;;22.90;26.80;;;;;;5048790;28;20201;-60
2021/03/23 03:01:45;;;;;;;1.77;1.50;;;22.90;26.80;;;;;;5050003;28;20197;-60
2021/03/23 03:04:11;;;;;;;1.40;1.30;;;22.90;26.80;;;;;;5048547;28;20693;-60
2021/03/23 03:06:37;;;;;;;2.00;1.40;;;22.90;26.80;;;;;;5036769;28;20227;-60
2021/03/23 03:09:03;;;;;;;1.90;1.30;;;22.90;26.80;;;;;;5047383;28;20207;-60
2021/03/23 03:11:29;;;;;;;2.17;1.57;;;22.90;26.80;;;;;;5048989;28;20286;-65
2021/03/23 03:13:55;;;;;;;2.10;1.00;;;22.90;26.80;;;;;;5048926;28;20204;-60
2021/03/23 03:16:21;;;;;;;1.20;1.10;;;22.90;26.80;;;;;;5049170;28;20576;-60
2021/03/23 03:18:47;;;;;;;1.40;1.30;;;22.90;26.80;;;;;;5044617;28;20227;-60
2021/03/23 03:21:13;;;;;;;1.40;1.30;;;22.90;26.80;;;;;;5037434;28;20207;-60
2021/03/23 03:23:39;;;;;;;1.60;1.20;;;22.90;26.80;;;;;;5048759;28;20208;-60
2021/03/23 03:26:05;;;;;;;1.43;1.27;;;22.90;26.90;;;;;;5053194;28;20235;-60
2021/03/23 03:28:31;;;;;;;1.50;1.40;;;22.90;26.90;;;;;;5051154;28;20590;-58
2021/03/23 03:30:57;;;;;;;1.33;1.20;;;22.90;26.90;;;;;;5048560;28;20208;-58
2021/03/23 03:33:23;;;;;;;1.83;1.57;;;22.80;27.30;;;;;;5045228;28;20557;-60
2021/03/23 03:35:49;;;;;;;1.67;1.47;;;22.80;27.20;;;;;;5053275;28;20196;-59
2021/03/23 03:38:15;;;;;;;1.87;1.33;;;22.80;27.00;;;;;;5051639;28;20695;-58
2021/03/23 03:40:41;;;;;;;1.87;1.30;;;22.80;26.90;;;;;;5051833;28;20204;-59
2021/03/23 03:43:07;;;;;;;1.50;1.23;;;22.80;26.90;;;;;;5051945;28;20544;-58
2021/03/23 03:45:33;;;;;;;2.00;1.37;;;22.90;26.90;;;;;;5052164;28;20246;-59
2021/03/23 03:47:59;;;;;;;1.40;1.20;;;22.90;26.90;;;;;;5052456;28;20254;-59
2021/03/23 03:50:25;;;;;;;1.30;1.20;;;22.90;26.90;;;;;;5052237;28;20201;-59
2021/03/23 03:52:51;;;;;;;1.30;1.20;;;22.90;26.90;;;;;;5048016;28;20231;-58
2021/03/23 03:55:17;;;;;;;2.90;1.40;;;22.90;26.90;;;;;;5052319;28;20212;-60
2021/03/23 03:57:43;;;;;;;1.60;1.23;;;22.80;26.90;;;;;;5050427;28;20660;-59
2021/03/23 04:00:09;;;;;;;1.30;1.20;;;22.90;26.90;;;;;;5052638;28;20215;-59
2021/03/23 04:02:35;;;;;;;2.43;1.50;;;22.90;26.90;;;;;;5050178;28;20205;-60
2021/03/23 04:05:01;;;;;;;2.73;1.50;;;22.90;26.90;;;;;;5051658;28;20236;-60
2021/03/23 04:07:27;;;;;;;1.97;1.30;;;22.90;26.90;;;;;;5050238;28;20221;-59
2021/03/23 04:09:53;;;;;;;1.40;1.30;;;22.90;26.90;;;;;;5051767;28;20209;-59
2021/03/23 04:12:19;;;;;;;1.27;1.10;;;22.80;26.90;;;;;;5046863;28;20197;-58
2021/03/23 04:14:45;;;;;;;1.43;1.30;;;22.80;26.90;;;;;;5052671;28;20726;-59
2021/03/23 04:17:10;;;;;;;1.70;1.27;;;22.90;26.90;;;;;;5049334;28;20267;-59
2021/03/23 04:19:36;;;;;;;1.03;1.00;;;22.90;26.90;;;;;;5051772;28;20208;-59
2021/03/23 04:22:02;;;;;;;1.50;1.40;;;22.90;26.90;;;;;;5047625;28;20209;-59
2021/03/23 04:24:28;;;;;;;1.30;1.20;;;22.90;26.90;;;;;;5048356;28;20225;-59
2021/03/23 04:26:54;;;;;;;1.97;1.53;;;22.90;26.90;;;;;;5046910;28;20250;-59
2021/03/23 04:29:20;;;;;;;1.23;1.13;;;22.90;26.90;;;;;;5050454;28;20311;-60
2021/03/23 04:31:47;;;;;;;1.47;1.10;;;22.90;26.90;;;;;;5052213;28;20196;-59
2021/03/23 04:34:13;;;;;;;1.57;1.40;;;22.90;26.90;;;;;;5051271;28;20567;-59
2021/03/23 04:36:38;;;;;;;1.40;1.30;;;22.90;26.90;;;;;;5039780;28;20232;-58
2021/03/23 04:39:04;;;;;;;1.40;1.30;;;22.90;26.90;;;;;;5051437;28;20251;-59
2021/03/23 04:41:30;;;;;;;1.20;1.10;;;22.90;26.90;;;;;;5052170;28;20205;-56
2021/03/23 04:43:56;;;;;;;1.77;1.20;;;22.90;27.00;;;;;;5051177;28;20203;-58
2021/03/23 04:46:22;;;;;;;2.73;1.37;;;22.80;27.60;;;;;;5049927;28;20594;-59
2021/03/23 04:48:48;;;;;;;1.43;1.33;;;22.80;27.40;;;;;;5051197;28;20205;-59
2021/03/23 04:51:14;;;;;;;1.33;1.23;;;22.80;27.20;;;;;;5051717;28;20209;-59
2021/03/23 04:53:40;;;;;;;1.73;1.30;;;22.90;27.20;;;;;;5051097;28;20259;-59
2021/03/23 04:56:06;;;;;;;1.70;1.47;;;22.80;27.10;;;;;;5050496;28;20196;-59
2021/03/23 04:58:32;;;;;;;1.60;1.30;;;22.80;27.10;;;;;;5049265;28;20221;-59
2021/03/23 05:00:58;;;;;;;1.70;1.60;;;22.80;27.10;;;;;;5051564;28;20233;-60
2021/03/23 05:03:24;;;;;;;2.17;1.30;;;22.80;27.00;;;;;;5050355;28;20206;-59
2021/03/23 05:05:50;;;;;;;4.13;1.43;;;22.80;27.00;;;;;;5051030;28;20235;-58
2021/03/23 05:08:16;;;;;;;1.37;1.27;;;22.80;27.00;;;;;;5050430;28;20228;-59
2021/03/23 05:10:42;;;;;;;1.60;1.40;;;22.90;27.00;;;;;;5051910;28;20352;-59
2021/03/23 05:13:08;;;;;;;3.07;1.53;;;22.90;27.00;;;;;;5050732;28;20213;-60
2021/03/23 05:15:34;;;;;;;1.93;1.53;;;22.90;27.00;;;;;;5051298;28;20224;-58
2021/03/23 05:18:00;;;;;;;1.70;1.20;;;22.90;27.00;;;;;;5050173;28;20278;-59
2021/03/23 05:20:26;;;;;;;1.97;1.63;;;22.90;27.00;;;;;;5048578;28;20804;-60
2021/03/23 05:22:52;;;;;;;2.03;1.50;;;22.90;27.00;;;;;;5048579;28;20308;-59
2021/03/23 05:25:18;;;;;;;1.47;1.20;;;22.90;27.00;;;;;;5051141;28;20238;-60
2021/03/23 05:27:44;;;;;;;1.97;1.37;;;22.90;27.00;;;;;;5049203;28;20328;-58
2021/03/23 05:30:10;;;;;;;2.33;1.43;;;22.90;27.00;;;;;;5050629;28;20279;-59
2021/03/23 05:32:36;;;;;;;1.53;1.27;;;22.90;26.90;;;;;;5050281;28;20204;-59
2021/03/23 05:35:02;;;;;;;1.30;1.20;;;22.90;27.00;;;;;;5050675;28;20204;-59
2021/03/23 05:37:28;;;;;;;1.37;1.20;;;22.90;27.00;;;;;;5048809;28;20719;-59
2021/03/23 05:39:54;;;;;;;1.83;1.20;;;22.90;27.00;;;;;;5050394;28;20201;-59
2021/03/23 05:42:20;;;;;;;1.70;1.60;;;22.90;27.00;;;;;;5050205;28;20613;-59
2021/03/23 05:44:46;;;;;;;2.17;1.27;;;22.90;27.00;;;;;;5049559;28;20230;-59
2021/03/23 05:47:12;;;;;;;1.80;1.37;;;22.90;27.10;;;;;;5048739;28;20669;-59
2021/03/23 05:49:38;;;;;;;1.40;1.30;;;22.90;27.10;;;;;;5049728;28;20220;-58
2021/03/23 05:52:04;;;;;;;1.50;1.10;;;22.80;27.00;;;;;;5050353;28;20204;-59
2021/03/23 05:54:30;;;;;;;1.43;1.20;;;22.80;27.00;;;;;;5049553;28;20267;-59
2021/03/23 05:56:56;;;;;;;1.83;1.23;;;22.90;27.10;;;;;;5050195;28;20236;-59
2021/03/23 05:59:22;;;;;;;1.27;1.17;;;22.80;27.00;;;;;;5047690;28;20278;-59
2021/03/23 06:01:48;;;;;;;1.40;1.10;;;22.80;27.00;;;;;;5050266;28;20197;-59
2021/03/23 06:04:14;;;;;;;1.30;1.20;;;22.90;27.10;;;;;;5049349;28;20342;-57
2021/03/23 06:06:40;;;;;;;1.47;1.20;;;22.90;27.00;;;;;;5049925;28;20232;-59
2021/03/23 06:09:06;;;;;;;1.90;1.20;;;22.90;27.10;;;;;;5048485;28;20251;-57
2021/03/23 06:11:32;;;;;;;2.37;1.47;;;22.90;27.10;;;;;;5050555;28;20619;-59
2021/03/23 06:13:58;;;;;;;1.00;1.00;;;22.90;27.10;;;;;;5049151;28;20201;-57
2021/03/23 06:16:24;;;;;;;1.30;1.20;;;22.90;27.00;;;;;;5049074;28;20278;-59
2021/03/23 06:18:50;;;;;;;2.07;1.43;;;22.90;27.10;;;;;;5048601;28;20708;-58
2021/03/23 06:21:16;;;;;;;1.80;1.30;;;22.90;27.10;;;;;;5050639;28;20219;-57
2021/03/23 06:23:42;;;;;;;2.17;1.30;;;22.90;27.00;;;;;;5048636;28;20587;-59
2021/03/23 06:26:08;;;;;;;2.57;1.40;;;22.90;27.00;;;;;;5048474;28;20245;-59
2021/03/23 06:28:34;;;;;;;1.63;1.53;;;22.90;27.00;;;;;;5047618;28;20201;-59
2021/03/23 06:31:00;;;;;;;1.57;1.30;;;22.90;27.00;;;;;;5048644;28;20756;-58
2021/03/23 06:33:26;;;;;;;1.53;1.43;;;22.90;27.00;;;;;;5035052;28;20205;-59
2021/03/23 06:35:52;;;;;;;1.67;1.20;;;22.90;27.00;;;;;;5048904;28;20205;-59
2021/03/23 06:38:18;;;;;;;1.97;1.40;;;22.90;27.10;;;;;;5048432;28;20592;-58
2021/03/23 06:40:44;;;;;;;1.63;1.13;;;22.90;27.00;;;;;;5048007;28;20202;-59
2021/03/23 06:43:10;;;;;;;1.30;1.20;;;22.90;27.00;;;;;;5050276;28;20195;-59
2021/03/23 06:45:36;;;;;;;1.77;1.33;;;22.90;27.00;;;;;;5049157;28;20901;-59
2021/03/23 06:48:02;;;;;;;2.07;1.20;;;22.90;27.00;;;;;;5047856;28;20230;-57
2021/03/23 06:50:28;;;;;;;1.40;1.30;;;22.90;27.00;;;;;;5049138;28;20204;-59
2021/03/23 06:52:54;;;;;;;3.20;1.60;;;22.90;27.40;;;;;;5048037;28;20669;-59
2021/03/23 06:55:20;;;;;;;1.30;1.20;;;22.90;27.20;;;;;;5049724;28;20224;-59
2021/03/23 06:57:46;;;;;;;1.93;1.30;;;22.90;27.10;;;;;;5048444;28;20279;-59
2021/03/23 07:00:12;;;;;;;1.77;1.37;;;22.90;27.10;;;;;;5052282;28;20592;-59
2021/03/23 07:02:38;;;;;;;2.53;1.20;;;22.90;27.00;;;;;;5050268;28;20216;-59
2021/03/23 07:05:04;;;;;;;1.20;1.10;;;22.90;27.00;;;;;;5053902;28;20672;-59
2021/03/23 07:07:30;;;;;;;2.30;1.47;;;22.90;27.00;;;;;;5052504;28;20217;-59
2021/03/23 07:09:56;;;;;;;2.93;1.60;;;22.90;27.00;;;;;;5054009;28;20259;-59
2021/03/23 07:12:22;;;;;;;1.43;1.33;;;22.90;27.00;;;;;;5049651;28;20736;-60
2021/03/23 07:14:48;;;;;;;1.93;1.17;;;22.90;27.00;;;;;;5044391;28;20202;-59
2021/03/23 07:17:14;;;;;;;1.80;1.20;;;22.90;27.00;;;;;;5037613;28;20282;-59
2021/03/23 07:19:40;;;;;;;2.50;1.30;;;22.90;27.10;;;;;;5052147;28;20228;-59
2021/03/23 07:22:06;;;;;;;2.77;1.23;;;22.90;27.10;;;;;;5049630;28;20248;-60
2021/03/23 07:24:33;;;;;;;2.17;1.60;;;22.90;27.10;;;;;;5043615;28;20205;-55
2021/03/23 07:26:59;;;;;;;4.83;1.80;;;22.90;27.30;;;;;;5041009;28;20233;-57
2021/03/23 07:29:25;;;;;;;6.53;1.43;;;22.90;28.00;;;;;;5036559;28;20292;-55
2021/03/23 07:31:51;;;;;;;2.40;1.53;;;23.00;28.00;;;;;;5050857;28;20213;-56
2021/03/23 07:34:17;;;;;;;3.17;1.60;;;23.00;28.00;;;;;;5052853;28;20212;-58
2021/03/23 07:36:43;;;;;;;4.30;1.70;;;22.90;27.80;;;;;;5052097;28;20229;-45
2021/03/23 07:39:09;;;;;;;3.10;1.30;;;22.90;28.00;;;;;;5050276;28;20295;-51
2021/03/23 07:41:35;;;;;;;4.93;1.83;;;22.90;28.00;;;;;;5046166;28;20213;-51
2021/03/23 07:44:02;;;;;;;5.27;1.97;;;22.90;28.00;;;;;;5052112;28;20208;-47
2021/03/23 07:46:28;;;;;;;10.13;1.97;;;22.90;28.50;;;;;;5052502;28;20236;-54
2021/03/23 07:48:55;;;;;;;3.00;1.90;;;22.90;28.90;;;;;;5046941;28;20228;-54
2021/03/23 07:51:21;;;;;;;5.87;1.70;;;22.90;29.90;;;;;;5043404;28;20298;-53
2021/03/23 07:53:47;;;;;;;6.33;2.13;;;22.90;31.90;;;;;;5053112;28;20204;-47
2021/03/23 07:56:13;;;;;;;3.27;1.60;;;22.90;32.50;;;;;;5045582;28;20724;-50
2021/03/23 07:58:39;;;;;;;8.87;2.40;;;22.80;33.00;;;;;;5051471;28;20205;-48
2021/03/23 08:01:05;;;;;;;6.13;2.40;;;22.80;33.40;;;;;;5052393;28;20220;-43
2021/03/23 08:03:31;;;;;;;10.00;1.80;;;22.80;33.80;;;;;;5051847;28;20200;-55
2021/03/23 08:05:57;;;;;;;12.77;4.90;;;22.80;32.20;;;;;;5052125;28;20601;-51
2021/03/23 08:08:23;;;;;;;12.67;6.80;;;22.60;31.90;;;;;;5044170;28;20259;-49
2021/03/23 08:10:50;;;;;;;12.67;7.43;;;22.10;29.50;;;;;;5051501;28;20633;-50
2021/03/23 08:13:16;;;;;;;8.80;6.17;;;21.70;28.10;;;;;;5050744;28;20301;-52
2021/03/23 08:15:42;;;;;;;8.53;6.10;;;21.70;27.60;;;;;;5051049;28;20211;-52
2021/03/23 08:18:08;;;;;;;7.43;5.67;;;21.80;27.20;;;;;;5050466;28;20253;-56
2021/03/23 08:20:33;;;;;;;10.47;6.70;;;21.80;27.20;;;;;;5049285;28;20671;-48
2021/03/23 08:23:00;;;;;;;7.73;5.83;;;21.90;26.40;;;;;;5049900;28;20208;-49
2021/03/23 08:25:25;;;;;;;7.43;4.60;;;22.00;26.00;;;;;;5052000;28;20226;-49
2021/03/23 08:27:51;;;;;;;5.97;4.00;;;22.10;30.00;;;;;;5050512;28;20597;-48
2021/03/23 08:30:17;;;;;;;5.73;3.50;;;22.20;29.60;;;;;;5050878;28;20222;-49
2021/03/23 08:32:43;;;;;;;4.83;3.13;;;22.30;31.30;;;;;;5046165;28;20251;-53
2021/03/23 08:35:09;;;;;;;5.07;3.00;;;22.30;31.70;;;;;;5050384;28;20556;-53
2021/03/23 08:37:36;;;;;;;6.17;2.90;;;22.40;31.80;;;;;;5048932;28;20231;-50
2021/03/23 08:40:02;;;;;;;4.67;2.83;;;22.40;31.80;;;;;;5050733;28;20208;-50
2021/03/23 08:42:28;;;;;;;4.10;2.27;;;22.40;32.00;;;;;;5043435;28;20201;-48
2021/03/23 08:44:55;;;;;;;3.50;2.47;;;22.50;31.80;;;;;;5050945;28;20192;-52
2021/03/23 08:47:21;;;;;;;5.00;2.33;;;22.50;32.30;;;;;;5050663;28;20236;-51
2021/03/23 08:49:47;;;;;;;2.53;2.30;;;22.50;32.70;;;;;;5050708;28;20727;-47
2021/03/23 08:52:13;;;;;;;5.10;2.07;;;22.50;32.60;;;;;;5046824;28;20205;-53
2021/03/23 08:54:39;;;;;;;4.40;2.13;;;22.50;31.60;;;;;;5049849;28;20212;-50
2021/03/23 08:57:05;;;;;;;2.10;1.90;;;22.60;31.90;;;;;;5050242;28;20224;-49
2021/03/23 08:59:31;;;;;;;6.70;2.17;;;22.60;32.50;;;;;;5049762;28;20220;-50
2021/03/23 09:01:57;;;;;;;3.87;2.10;;;22.60;33.30;;;;;;5050593;28;20213;-51
2021/03/23 09:04:23;;;;;;;2.33;1.83;;;22.60;31.90;;;;;;5050256;28;20251;-49
2021/03/23 09:06:49;;;;;;;3.00;2.00;;;22.70;30.60;;;;;;5047587;28;20751;-50
2021/03/23 09:09:16;;;;;;;4.60;2.10;;;22.70;32.00;;;;;;5046924;28;20200;-51
2021/03/23 09:11:42;;;;;;;4.27;2.10;;;22.70;31.70;;;;;;5049142;28;20211;-51
2021/03/23 09:14:08;;;;;;;2.77;1.90;;;22.70;31.80;;;;;;5047350;28;20296;-48
2021/03/23 09:16:34;;;;;;;4.40;1.97;;;22.80;30.60;;;;;;5045955;28;20252;-47
2021/03/23 09:19:00;;;;;;;2.50;1.97;;;22.80;31.40;;;;;;5048797;28;20641;-46
2021/03/23 09:21:26;;;;;;;3.03;1.90;;;22.80;31.30;;;;;;5048109;28;20205;-49
2021/03/23 09:23:54;;;;;;;2.97;2.20;;;22.80;31.10;;;;;;5049370;28;20231;-44
2021/03/23 09:26:20;;;;;;;3.10;1.90;;;22.80;30.60;;;;;;5049871;28;20605;-47
2021/03/23 09:28:50;;;;;;;3.23;2.03;;;22.80;30.50;;;;;;5048385;28;20304;-48
2021/03/23 09:31:16;;;;;;;2.43;1.97;;;22.80;29.90;;;;;;5049316;28;20209;-53
2021/03/23 09:33:42;;;;;;;4.87;2.40;;;22.80;29.90;;;;;;5047836;28;20534;-51
2021/03/23 09:36:10;;;;;;;2.53;1.93;;;22.90;29.50;;;;;;5048572;28;20220;-49
2021/03/23 09:38:37;;;;;;;2.53;1.80;;;22.80;29.40;;;;;;5049489;28;20212;-53
2021/03/23 09:41:06;;;;;;;3.93;1.80;;;22.90;30.30;;;;;;5050801;28;20212;-52
2021/03/23 09:43:32;;;;;;;2.13;1.93;;;22.80;29.80;;;;;;5044735;28;20274;-53
2021/03/23 09:45:58;;;;;;;2.67;1.70;;;22.80;29.60;;;;;;5048271;28;20237;-53
2021/03/23 09:48:24;;;;;;;1.93;1.70;;;22.80;29.90;;;;;;5045422;28;20221;-47
2021/03/23 09:50:50;;;;;;;2.93;2.00;;;22.80;29.60;;;;;;5046213;28;20657;-48
2021/03/23 09:53:16;;;;;;;2.50;1.90;;;22.80;29.50;;;;;;5038426;28;20209;-56
2021/03/23 09:55:42;;;;;;;3.00;1.93;;;22.90;29.30;;;;;;5049078;28;20219;-42
2021/03/23 09:58:08;;;;;;;2.50;2.10;;;22.90;29.30;;;;;;5047111;28;20204;-50
2021/03/23 10:00:35;;;;;;;3.67;2.03;;;22.90;29.30;;;;;;5048292;28;20271;-49
2021/03/23 10:03:01;;;;;;;1.70;1.60;;;22.90;29.30;;;;;;5049861;28;20213;-52
2021/03/23 10:05:27;;;;;;;2.30;1.97;;;22.90;29.20;;;;;;5048345;28;20572;-50
2021/03/23 10:07:53;;;;;;;1.60;1.50;;;22.90;28.90;;;;;;5047361;28;20205;-50
2021/03/23 10:10:19;;;;;;;3.70;1.70;;;23.00;29.20;;;;;;5045558;28;20653;-48
2021/03/23 10:12:45;;;;;;;2.77;2.00;;;23.00;29.10;;;;;;5037207;28;20228;-48
2021/03/23 10:15:11;;;;;;;1.97;1.77;;;23.00;29.20;;;;;;5047151;28;20263;-47
2021/03/23 10:17:37;;;;;;;2.77;1.70;;;22.90;29.20;;;;;;5050541;28;20697;-52
2021/03/23 10:20:03;;;;;;;2.53;1.63;;;22.90;29.80;;;;;;5051100;28;20212;-50
2021/03/23 10:22:29;;;;;;;1.77;1.60;;;22.90;29.70;;;;;;5050134;28;20661;-50
2021/03/23 10:24:55;;;;;;;2.60;1.97;;;22.90;29.90;;;;;;5050991;28;20566;-45
2021/03/23 10:27:21;;;;;;;2.90;1.80;;;22.80;29.50;;;;;;5050536;28;20241;-46
2021/03/23 10:29:47;;;;;;;2.37;1.73;;;22.80;29.50;;;;;;5051193;28;20201;-48
2021/03/23 10:32:13;;;;;;;4.57;1.80;;;22.80;29.50;;;;;;5050513;28;20232;-50
2021/03/23 10:34:39;;;;;;;3.20;2.37;;;22.80;29.40;;;;;;5049429;28;20719;-49
2021/03/23 10:37:05;;;;;;;1.63;1.47;;;22.80;29.50;;;;;;5050081;28;20232;-51
2021/03/23 10:39:31;;;;;;;2.17;1.57;;;22.80;29.30;;;;;;5050745;28;20563;-51
2021/03/23 10:41:57;;;;;;;2.70;1.73;;;22.80;29.30;;;;;;5050524;28;20197;-50
2021/03/23 10:44:23;;;;;;;1.43;1.33;;;22.80;29.40;;;;;;5050574;28;20560;-47
2021/03/23 10:46:49;;;;;;;4.17;1.60;;;22.80;29.40;;;;;;5049831;28;20244;-48
2021/03/23 10:49:15;;;;;;;1.90;1.70;;;22.80;29.40;;;;;;5050571;28;20217;-48
2021/03/23 10:51:41;;;;;;;2.23;1.60;;;22.80;29.60;;;;;;5044477;28;20255;-48
2021/03/23 10:54:07;;;;;;;1.67;1.57;;;22.80;29.50;;;;;;5049410;28;20687;-47
2021/03/23 10:56:33;;;;;;;2.23;1.77;;;22.80;29.50;;;;;;5050269;28;20707;-49
2021/03/23 10:58:59;;;;;;;2.10;1.80;;;22.80;29.60;;;;;;5050773;28;20208;-49
2021/03/23 11:01:25;;;;;;;2.30;2.07;;;22.80;29.60;;;;;;5050873;28;20264;-49
2021/03/23 11:03:54;;;;;;;2.20;1.90;;;22.80;29.50;;;;;;5049854;28;20202;-46
2021/03/23 11:06:20;;;;;;;1.87;1.60;;;22.80;29.50;;;;;;5049683;28;20654;-47
2021/03/23 11:08:46;;;;;;;1.90;1.60;;;22.80;29.50;;;;;;5050925;28;20204;-47
2021/03/23 11:11:12;;;;;;;2.07;1.50;;;22.80;29.40;;;;;;5051110;28;20209;-46
2021/03/23 11:13:38;;;;;;;2.37;2.00;;;22.80;29.30;;;;;;5050613;28;20209;-47
2021/03/23 11:16:06;;;;;;;2.20;1.57;;;22.80;29.30;;;;;;5049668;28;20278;-47
2021/03/23 11:18:33;;;;;;;2.80;1.60;;;22.80;29.20;;;;;;5050238;28;20564;-50
2021/03/23 11:20:59;;;;;;;1.53;1.43;;;22.80;29.20;;;;;;5051553;28;20299;-50
2021/03/23 11:23:29;;;;;;;1.73;1.63;;;22.80;29.00;;;;;;5050391;28;20205;-54
2021/03/23 11:25:55;;;;;;;1.60;1.50;;;22.80;29.00;;;;;;5036880;28;20237;-54
2021/03/23 11:28:21;;;;;;;1.67;1.57;;;22.80;28.90;;;;;;5036863;28;20533;-48
2021/03/23 11:30:47;;;;;;;2.40;1.50;;;22.80;28.90;;;;;;5042079;28;20205;-53
2021/03/23 11:33:14;;;;;;;1.83;1.40;;;22.80;28.80;;;;;;5049215;28;20363;-48
2021/03/23 11:35:40;;;;;;;1.47;1.30;;;22.80;28.70;;;;;;5047492;28;20232;-48
2021/03/23 11:38:06;;;;;;;2.73;1.93;;;22.90;28.70;;;;;;5047202;28;20662;-50
2021/03/23 11:40:32;;;;;;;2.50;1.80;;;22.90;28.70;;;;;;5047402;28;20206;-50
2021/03/23 11:42:58;;;;;;;1.53;1.43;;;22.90;28.80;;;;;;5047859;28;20283;-49
2021/03/23 11:45:23;;;;;;;2.87;1.60;;;22.90;28.70;;;;;;5051348;28;20197;-49
2021/03/23 11:47:54;;;;;;;1.90;1.53;;;22.90;28.80;;;;;;5044548;28;20205;-53
2021/03/23 11:50:22;;;;;;;2.00;1.80;;;22.90;28.70;;;;;;5044313;28;20572;-51
2021/03/23 11:52:48;;;;;;;1.83;1.60;;;22.90;28.80;;;;;;5053224;28;20744;-43
2021/03/23 11:55:14;;;;;;;3.73;1.63;;;22.90;28.80;;;;;;5051226;28;20212;-46
2021/03/23 11:57:40;;;;;;;1.73;1.53;;;22.90;28.90;;;;;;5051785;28;20202;-52
2021/03/23 12:00:06;;;;;;;2.47;1.50;;;22.90;28.60;;;;;;5052664;28;20565;-55
2021/03/23 12:02:32;;;;;;;2.63;1.73;;;22.90;28.70;;;;;;5052131;28;20210;-47
2021/03/23 12:04:58;;;;;;;3.03;1.50;;;22.90;29.10;;;;;;5051193;28;20228;-51
2021/03/23 12:07:24;;;;;;;2.20;1.40;;;22.90;28.70;;;;;;5052079;28;20236;-52
2021/03/23 12:09:50;;;;;;;2.03;1.60;;;22.90;28.80;;;;;;5051826;28;20318;-54
2021/03/23 12:12:16;;;;;;;1.80;1.53;;;22.90;28.70;;;;;;5051181;28;20652;-56
2021/03/23 12:14:42;;;;;;;2.03;1.60;;;22.90;29.00;;;;;;5051938;28;20198;-53
2021/03/23 12:17:09;;;;;;;2.80;1.60;;;22.90;28.70;;;;;;5051995;28;20225;-55
2021/03/23 12:19:35;;;;;;;1.97;1.87;;;22.90;28.50;;;;;;5051076;28;20259;-50
2021/03/23 12:22:01;;;;;;;3.10;1.80;;;22.90;28.50;;;;;;5047687;28;20208;-50
2021/03/23 12:24:27;;;;;;;1.90;1.70;;;22.90;28.50;;;;;;5051670;28;20649;-51
2021/03/23 12:26:53;;;;;;;11.70;4.57;;;23.00;28.50;;;;;;5052139;28;20239;-49
2021/03/23 12:29:20;;;;;;;10.97;5.20;;;22.90;29.20;;;;;;5051839;28;20208;-56
2021/03/23 12:31:46;;;;;;;16.70;8.17;;;22.90;29.10;;;;;;5051537;28;20205;-51
2021/03/23 12:34:12;;;;;;;14.60;8.63;;;22.90;29.20;;;;;;5050567;28;20201;-49
2021/03/23 12:36:38;;;;;;;20.97;9.97;;;22.90;29.30;;;;;;5049383;28;20702;-53
2021/03/23 12:39:04;;;;;;;14.93;8.77;;;22.90;29.30;;;;;;5050755;28;20283;-53
2021/03/23 12:41:30;;;;;;;11.67;7.43;;;21.40;21.00;;;;;;5052388;28;20202;-52